createdAt,value
2019-05-03T00:02:27.165Z,17.27
2019-05-03T00:05:13.851Z,16.65
2019-05-03T00:07:42.563Z,17.65
2019-05-03T00:10:12.834Z,16.70
2019-05-03T00:12:42.149Z,17.40
2019-05-03T00:15:14.108Z,16.87
2019-05-03T00:17:42.715Z,16.73
2019-05-03T00:20:11.723Z,18.17
2019-05-03T00:22:41.911Z,18.35
2019-05-03T00:25:12.750Z,18.98
2019-05-03T00:27:42.757Z,18.82
2019-05-03T00:30:12.039Z,18.40
2019-05-03T00:32:42.615Z,18.82
2019-05-03T00:35:22.591Z,17.40
2019-05-03T00:37:55.680Z,19.07
2019-05-03T00:40:30.033Z,18.60
2019-05-03T00:42:59.170Z,19.27
2019-05-03T00:45:27.783Z,18.90
2019-05-03T00:47:56.400Z,19.62
2019-05-03T00:50:25.236Z,18.42
2019-05-03T00:52:53.861Z,18.20
2019-05-03T00:55:22.493Z,18.20
2019-05-03T00:57:52.141Z,17.95
2019-05-03T01:00:21.796Z,16.10
2019-05-03T01:02:51.690Z,17.05
2019-05-03T01:05:22.500Z,15.98
2019-05-03T01:07:52.412Z,17.12
2019-05-03T01:10:22.639Z,17.25
2019-05-03T01:12:52.273Z,17.32
2019-05-03T01:15:25.868Z,16.20
2019-05-03T01:17:54.441Z,16.62
2019-05-03T01:20:22.973Z,16.93
2019-05-03T01:22:51.953Z,16.80
2019-05-03T01:25:31.544Z,18.15
2019-05-03T01:27:52.184Z,18.50
2019-05-03T01:30:22.635Z,18.15
2019-05-03T01:32:52.354Z,20.90
2019-05-03T01:35:21.905Z,20.88
2019-05-03T01:37:51.721Z,20.95
2019-05-03T01:40:22.031Z,20.70
2019-05-03T01:42:51.800Z,20.43
2019-05-03T01:45:22.637Z,21.97
2019-05-03T01:48:02.567Z,20.17
2019-05-03T01:50:49.594Z,19.65
2019-05-03T01:53:21.568Z,19.50
2019-05-03T01:55:52.806Z,19.42
2019-05-03T01:58:23.141Z,20.20
2019-05-03T02:00:54.584Z,18.05
2019-05-03T02:03:24.831Z,18.35
2019-05-03T02:05:55.116Z,19.15
2019-05-03T02:08:23.659Z,17.50
2019-05-03T02:10:52.274Z,16.77
2019-05-03T02:13:22.810Z,18.05
2019-05-03T02:15:52.755Z,17.48
2019-05-03T02:18:22.352Z,17.07
2019-05-03T02:20:52.567Z,17.77
2019-05-03T02:23:22.472Z,16.93
2019-05-03T02:25:58.410Z,16.90
2019-05-03T02:28:22.068Z,17.05
2019-05-03T02:30:53.277Z,16.17
2019-05-03T02:33:23.371Z,16.60
2019-05-03T02:35:53.299Z,16.02
2019-05-03T02:38:23.351Z,15.83
2019-05-03T02:40:53.226Z,15.68
2019-05-03T02:43:27.245Z,14.03
2019-05-03T02:46:05.814Z,15.75
2019-05-03T02:48:50.282Z,16.40
2019-05-03T02:51:18.990Z,15.28
2019-05-03T02:53:47.599Z,15.03
2019-05-03T02:56:22.151Z,15.90
2019-05-03T02:58:46.401Z,15.53
2019-05-03T03:01:16.188Z,16.07
2019-05-03T03:03:45.988Z,16.35
2019-05-03T03:06:17.465Z,15.60
2019-05-03T03:08:48.449Z,14.55
2019-05-03T03:11:18.853Z,15.25
2019-05-03T03:13:48.463Z,15.18
2019-05-03T03:16:20.328Z,16.20
2019-05-03T03:18:48.298Z,14.80
2019-05-03T03:21:18.566Z,14.65
2019-05-03T03:24:02.203Z,14.47
2019-05-03T03:26:37.979Z,14.68
2019-05-03T03:29:06.115Z,13.78
2019-05-03T03:31:49.743Z,14.70
2019-05-03T03:34:21.220Z,15.00
2019-05-03T03:37:00.876Z,14.58
2019-05-03T03:39:26.023Z,14.63
2019-05-03T03:41:56.280Z,14.18
2019-05-03T03:44:25.857Z,14.05
2019-05-03T03:46:56.322Z,14.35
2019-05-03T03:49:28.432Z,13.75
2019-05-03T03:52:00.367Z,14.00
2019-05-03T03:54:31.904Z,13.43
2019-05-03T03:57:05.013Z,13.90
2019-05-03T03:59:36.048Z,14.10
2019-05-03T04:02:05.989Z,14.78
2019-05-03T04:04:35.850Z,14.15
2019-05-03T04:07:06.564Z,14.68
2019-05-03T04:09:36.582Z,14.10
2019-05-03T04:12:06.118Z,15.03
2019-05-03T04:14:49.441Z,15.53
2019-05-03T04:17:19.697Z,15.85
2019-05-03T04:19:52.675Z,15.35
2019-05-03T04:22:21.519Z,15.85
2019-05-03T04:24:50.163Z,15.85
2019-05-03T04:27:23.273Z,15.18
2019-05-03T04:29:49.580Z,15.25
2019-05-03T04:32:18.095Z,15.60
2019-05-03T04:34:46.740Z,15.32
2019-05-03T04:37:16.312Z,15.35
2019-05-03T04:39:47.711Z,14.18
2019-05-03T04:42:16.813Z,15.03
2019-05-03T04:44:47.137Z,15.30
2019-05-03T04:47:17.237Z,15.50
2019-05-03T04:49:46.395Z,16.25
2019-05-03T04:52:16.566Z,15.83
2019-05-03T04:54:49.683Z,16.40
2019-05-03T04:57:35.164Z,16.55
2019-05-03T04:59:48.621Z,17.70
2019-05-03T05:02:17.245Z,15.98
2019-05-03T05:04:46.505Z,18.17
2019-05-03T05:07:17.616Z,17.27
2019-05-03T05:09:46.118Z,17.87
2019-05-03T05:12:16.177Z,17.52
2019-05-03T05:14:45.865Z,17.00
2019-05-03T05:17:16.533Z,17.00
2019-05-03T05:19:49.989Z,19.95
2019-05-03T05:22:24.710Z,20.23
2019-05-03T05:24:55.212Z,20.88
2019-05-03T05:27:25.698Z,18.10
2019-05-03T05:29:55.391Z,17.98
2019-05-03T05:32:24.785Z,18.62
2019-05-03T05:34:54.940Z,16.70
2019-05-03T05:37:25.018Z,17.82
2019-05-03T05:39:57.136Z,17.57
2019-05-03T05:42:25.683Z,16.05
2019-05-03T05:44:55.707Z,16.93
2019-05-03T05:47:38.003Z,16.37
2019-05-03T05:50:15.026Z,20.60
2019-05-03T05:52:44.836Z,17.35
2019-05-03T05:55:21.977Z,15.63
2019-05-03T05:58:02.995Z,16.23
2019-05-03T06:00:33.100Z,17.55
2019-05-03T06:03:01.710Z,18.35
2019-05-03T06:05:30.337Z,16.32
2019-05-03T06:08:04.847Z,16.23
2019-05-03T06:10:35.371Z,16.15
2019-05-03T06:13:08.500Z,17.35
2019-05-03T06:15:38.689Z,17.87
2019-05-03T06:18:08.966Z,16.97
2019-05-03T06:20:39.147Z,18.50
2019-05-03T06:23:09.370Z,21.37
2019-05-03T06:25:39.517Z,17.73
2019-05-03T06:28:18.274Z,16.10
2019-05-03T06:30:45.421Z,16.15
2019-05-03T06:33:15.482Z,15.32
2019-05-03T06:35:44.589Z,16.73
2019-05-03T06:38:15.128Z,17.60
2019-05-03T06:40:44.682Z,16.93
2019-05-03T06:43:15.612Z,15.55
2019-05-03T06:45:46.691Z,16.62
2019-05-03T06:48:17.279Z,17.23
2019-05-03T06:50:45.473Z,17.25
2019-05-03T06:53:15.552Z,15.15
2019-05-03T06:55:48.241Z,16.15
2019-05-03T06:58:16.512Z,18.07
2019-05-03T07:00:46.661Z,16.93
2019-05-03T07:03:28.750Z,15.48
2019-05-03T07:06:17.338Z,15.10
2019-05-03T07:08:47.689Z,15.35
2019-05-03T07:11:16.358Z,13.55
2019-05-03T07:13:45.074Z,14.85
2019-05-03T07:16:14.958Z,14.13
2019-05-03T07:18:45.489Z,14.15
2019-05-03T07:21:15.235Z,14.50
2019-05-03T07:23:45.072Z,14.40
2019-05-03T07:26:15.078Z,13.13
2019-05-03T07:28:47.806Z,14.15
2019-05-03T07:31:15.090Z,16.32
2019-05-03T07:33:44.625Z,15.98
2019-05-03T07:36:15.228Z,15.65
2019-05-03T07:38:45.364Z,16.45
2019-05-03T07:41:14.958Z,16.65
2019-05-03T07:43:45.116Z,16.90
2019-05-03T07:46:14.702Z,16.70
2019-05-03T07:48:45.565Z,15.58
2019-05-03T07:51:14.430Z,16.15
2019-05-03T07:53:45.128Z,15.30
2019-05-03T07:56:15.853Z,13.45
2019-05-03T07:58:59.303Z,16.80
2019-05-03T08:01:18.180Z,18.57
2019-05-03T08:03:46.928Z,18.90
2019-05-03T08:06:15.430Z,17.12
2019-05-03T08:08:45.413Z,19.17
2019-05-03T08:11:14.596Z,19.05
2019-05-03T08:13:44.679Z,19.05
2019-05-03T08:16:15.937Z,16.85
2019-05-03T08:18:45.840Z,17.45
2019-05-03T08:21:15.010Z,18.87
2019-05-03T08:23:45.287Z,19.55
2019-05-03T08:26:15.289Z,19.73
2019-05-03T08:28:44.541Z,20.65
2019-05-03T08:31:23.779Z,19.20
2019-05-03T08:33:58.805Z,18.27
2019-05-03T08:36:27.485Z,18.98
2019-05-03T08:38:56.478Z,18.52
2019-05-03T08:41:26.829Z,20.70
2019-05-03T08:43:55.455Z,18.60
2019-05-03T08:46:25.352Z,20.37
2019-05-03T08:48:54.845Z,18.75
2019-05-03T08:51:24.974Z,18.62
2019-05-03T08:53:55.998Z,17.07
2019-05-03T08:56:24.690Z,15.10
2019-05-03T08:58:55.306Z,14.95
2019-05-03T09:01:25.130Z,15.10
2019-05-03T09:03:55.788Z,15.72
2019-05-03T09:06:24.890Z,14.90
2019-05-03T09:08:56.869Z,15.70
2019-05-03T09:11:31.859Z,14.85
2019-05-03T09:13:56.081Z,16.30
2019-05-03T09:16:25.128Z,14.87
2019-05-03T09:18:54.889Z,15.40
2019-05-03T09:21:25.508Z,15.53
2019-05-03T09:23:55.539Z,16.30
2019-05-03T09:26:28.990Z,17.55
2019-05-03T09:28:55.603Z,16.85
2019-05-03T09:31:25.106Z,18.25
2019-05-03T09:33:54.807Z,19.20
2019-05-03T09:36:25.315Z,19.40
2019-05-03T09:38:54.969Z,19.10
2019-05-03T09:41:25.570Z,20.10
2019-05-03T09:43:55.440Z,20.95
2019-05-03T09:46:26.526Z,21.02
2019-05-03T09:49:03.545Z,20.82
2019-05-03T09:51:25.656Z,19.65
2019-05-03T09:53:55.943Z,18.52
2019-05-03T09:56:52.844Z,19.95
2019-05-03T09:59:14.766Z,18.48
2019-05-03T10:01:45.448Z,18.20
2019-05-03T10:04:13.415Z,17.27
2019-05-03T10:06:42.072Z,17.70
2019-05-03T10:09:10.691Z,16.45
2019-05-03T10:11:39.437Z,17.05
2019-05-03T10:14:15.417Z,16.17
2019-05-03T10:16:57.390Z,15.23
2019-05-03T10:19:36.680Z,15.03
2019-05-03T10:21:56.724Z,15.13
2019-05-03T10:24:25.497Z,14.15
2019-05-03T10:26:55.227Z,13.93
2019-05-03T10:29:25.105Z,15.10
2019-05-03T10:31:58.368Z,13.83
2019-05-03T10:34:27.060Z,12.18
2019-05-03T10:36:56.485Z,12.53
2019-05-03T10:39:26.253Z,12.65
2019-05-03T10:41:55.191Z,13.98
2019-05-03T10:44:24.583Z,13.65
2019-05-03T10:46:55.765Z,12.18
2019-05-03T10:49:24.690Z,13.13
2019-05-03T10:51:57.616Z,13.80
2019-05-03T10:54:26.235Z,14.18
2019-05-03T10:56:59.138Z,12.18
2019-05-03T10:59:27.666Z,12.35
2019-05-03T11:01:57.917Z,13.03
2019-05-03T11:04:27.545Z,11.68
2019-05-03T11:06:56.138Z,13.00
2019-05-03T11:09:25.818Z,14.33
2019-05-03T11:11:55.490Z,12.07
2019-05-03T11:14:25.398Z,11.93
2019-05-03T11:16:55.226Z,12.45
2019-05-03T11:19:25.455Z,13.55
2019-05-03T11:21:54.821Z,13.40
2019-05-03T11:24:27.218Z,12.98
2019-05-03T11:26:55.995Z,12.47
2019-05-03T11:29:24.840Z,13.08
2019-05-03T11:32:01.139Z,14.30
2019-05-03T11:34:37.473Z,14.28
2019-05-03T11:37:07.766Z,12.60
2019-05-03T11:39:36.303Z,13.45
2019-05-03T11:42:05.184Z,12.60
2019-05-03T11:44:39.200Z,12.37
2019-05-03T11:47:09.572Z,12.18
2019-05-03T11:49:38.151Z,12.60
2019-05-03T11:52:07.485Z,12.15
2019-05-03T11:54:36.209Z,12.63
2019-05-03T11:57:06.485Z,13.05
2019-05-03T11:59:35.137Z,14.30
2019-05-03T12:02:20.685Z,13.55
2019-05-03T12:04:49.331Z,13.25
2019-05-03T12:07:39.570Z,12.95
2019-05-03T12:10:17.609Z,13.25
2019-05-03T12:12:40.139Z,13.25
2019-05-03T12:15:09.072Z,14.03
2019-05-03T12:17:51.860Z,13.70
2019-05-03T12:20:17.266Z,13.72
2019-05-03T12:22:46.589Z,10.90
2019-05-03T12:25:16.719Z,13.13
2019-05-03T12:27:46.592Z,13.28
2019-05-03T12:30:15.516Z,13.95
2019-05-03T12:32:44.183Z,13.55
2019-05-03T12:35:15.174Z,13.22
2019-05-03T12:37:43.188Z,13.40
2019-05-03T12:40:14.852Z,13.15
2019-05-03T12:42:45.293Z,13.53
2019-05-03T12:45:15.259Z,13.93
2019-05-03T12:47:45.358Z,14.73
2019-05-03T12:50:15.629Z,14.00
2019-05-03T12:52:50.381Z,13.95
2019-05-03T12:55:15.349Z,14.95
2019-05-03T12:57:45.749Z,14.80
2019-05-03T13:00:27.620Z,14.35
2019-05-03T13:02:57.833Z,15.28
2019-05-03T13:05:26.551Z,15.25
2019-05-03T13:08:15.149Z,16.42
2019-05-03T13:10:45.207Z,15.55
2019-05-03T13:13:14.621Z,17.02
2019-05-03T13:15:43.373Z,19.25
2019-05-03T13:18:15.658Z,16.73
2019-05-03T13:20:45.320Z,17.05
2019-05-03T13:23:14.209Z,17.65
2019-05-03T13:25:44.626Z,16.45
2019-05-03T13:28:15.177Z,15.95
2019-05-03T13:30:45.127Z,26.75
2019-05-03T13:33:15.141Z,39.13
2019-05-03T13:35:44.618Z,21.42
2019-05-03T13:38:13.659Z,19.10
2019-05-03T13:40:42.270Z,16.73
2019-05-03T13:43:10.907Z,22.55
2019-05-03T13:45:39.384Z,31.87
2019-05-03T13:48:08.014Z,27.25
2019-05-03T13:50:36.545Z,18.52
2019-05-03T13:53:05.513Z,18.60
2019-05-03T13:55:35.300Z,17.55
2019-05-03T13:58:05.202Z,19.65
2019-05-03T14:00:35.254Z,19.73
2019-05-03T14:03:04.562Z,21.70
2019-05-03T14:05:35.211Z,17.65
2019-05-03T14:08:05.082Z,20.95
2019-05-03T14:10:35.971Z,20.12
2019-05-03T14:13:05.591Z,22.75
2019-05-03T14:15:34.933Z,19.55
2019-05-03T14:18:05.982Z,18.27
2019-05-03T14:20:50.889Z,15.28
2019-05-03T14:23:19.629Z,15.98
2019-05-03T14:25:49.839Z,17.57
2019-05-03T14:28:18.747Z,15.63
2019-05-03T14:30:47.372Z,13.83
2019-05-03T14:33:16.260Z,13.22
2019-05-03T14:35:45.286Z,14.87
2019-05-03T14:38:15.124Z,13.32
2019-05-03T14:40:44.861Z,14.83
2019-05-03T14:43:15.433Z,15.75
2019-05-03T14:45:44.297Z,16.25
2019-05-03T14:48:15.076Z,15.18
2019-05-03T14:50:45.413Z,14.45
2019-05-03T14:53:14.771Z,13.50
2019-05-03T14:55:45.394Z,13.78
2019-05-03T14:58:21.611Z,14.15
2019-05-03T15:00:51.875Z,15.13
2019-05-03T15:03:22.074Z,14.85
2019-05-03T15:05:50.685Z,15.15
2019-05-03T15:08:19.301Z,14.30
2019-05-03T15:10:50.956Z,12.78
2019-05-03T15:13:19.497Z,14.28
2019-05-03T15:15:48.047Z,13.35
2019-05-03T15:18:16.644Z,12.90
2019-05-03T15:20:45.456Z,14.00
2019-05-03T15:23:14.765Z,12.98
2019-05-03T15:25:45.243Z,13.45
2019-05-03T15:28:13.809Z,13.00
2019-05-03T15:30:44.394Z,15.00
2019-05-03T15:33:12.624Z,12.18
2019-05-03T15:35:44.553Z,12.45
2019-05-03T15:38:11.672Z,10.50
2019-05-03T15:40:40.770Z,9.33
2019-05-03T15:43:14.909Z,9.38
2019-05-03T15:45:58.250Z,8.30
2019-05-03T15:48:28.343Z,8.23
2019-05-03T15:50:56.941Z,10.00
2019-05-03T15:53:25.472Z,8.68
2019-05-03T15:55:55.102Z,9.38
2019-05-03T15:58:24.887Z,9.03
2019-05-03T16:00:55.471Z,8.45
2019-05-03T16:03:25.295Z,9.28
2019-05-03T16:05:55.682Z,10.00
2019-05-03T16:08:25.387Z,10.93
2019-05-03T16:10:54.903Z,11.20
2019-05-03T16:13:25.248Z,11.40
2019-05-03T16:15:55.287Z,10.45
2019-05-03T16:18:24.674Z,11.10
2019-05-03T16:20:54.605Z,11.97
2019-05-03T16:23:25.072Z,12.35
2019-05-03T16:25:54.446Z,12.40
2019-05-03T16:28:24.931Z,13.48
2019-05-03T16:30:55.651Z,13.05
2019-05-03T16:33:27.835Z,13.60
2019-05-03T16:35:54.950Z,14.85
2019-05-03T16:38:24.854Z,14.95
2019-05-03T16:40:54.513Z,16.90
2019-05-03T16:43:25.506Z,16.20
2019-05-03T16:45:55.178Z,15.90
2019-05-03T16:48:24.678Z,13.98
2019-05-03T16:50:53.708Z,16.15
2019-05-03T16:53:22.391Z,16.77
2019-05-03T16:55:50.922Z,16.30
2019-05-03T16:58:19.404Z,14.93
2019-05-03T17:00:48.089Z,14.65
2019-05-03T17:03:18.197Z,13.45
2019-05-03T17:06:05.075Z,12.40
2019-05-03T17:08:35.263Z,12.95
2019-05-03T17:11:05.860Z,12.82
2019-05-03T17:13:34.720Z,13.83
2019-05-03T17:16:04.787Z,13.88
2019-05-03T17:18:35.306Z,13.80
2019-05-03T17:21:05.335Z,14.28
2019-05-03T17:23:35.296Z,15.55
2019-05-03T17:26:04.473Z,13.72
2019-05-03T17:28:35.355Z,14.07
2019-05-03T17:31:04.587Z,13.90
2019-05-03T17:33:34.800Z,13.45
2019-05-03T17:36:05.126Z,14.10
2019-05-03T17:38:35.168Z,14.38
2019-05-03T17:41:08.550Z,14.40
2019-05-03T17:43:38.802Z,15.45
2019-05-03T17:46:09.143Z,15.83
2019-05-03T17:48:37.751Z,14.93
2019-05-03T17:51:06.362Z,14.83
2019-05-03T17:53:39.281Z,15.78
2019-05-03T17:56:27.757Z,14.98
2019-05-03T17:58:57.925Z,14.98
2019-05-03T18:01:31.154Z,16.82
2019-05-03T18:04:10.466Z,15.48
2019-05-03T18:06:58.300Z,16.27
2019-05-03T18:09:28.571Z,16.40
2019-05-03T18:11:58.815Z,16.30
2019-05-03T18:14:27.366Z,15.30
2019-05-03T18:16:55.938Z,15.68
2019-05-03T18:19:24.508Z,15.85
2019-05-03T18:21:55.320Z,14.93
2019-05-03T18:24:24.758Z,14.63
2019-05-03T18:26:53.720Z,14.70
2019-05-03T18:29:22.326Z,14.38
2019-05-03T18:31:50.943Z,11.78
2019-05-03T18:34:22.398Z,12.93
2019-05-03T18:36:49.876Z,11.73
2019-05-03T18:39:18.484Z,12.68
2019-05-03T18:41:47.163Z,10.90
2019-05-03T18:44:26.318Z,10.32
2019-05-03T18:46:56.492Z,9.73
2019-05-03T18:49:25.103Z,10.68
2019-05-03T18:51:55.377Z,11.43
2019-05-03T18:54:24.648Z,10.78
2019-05-03T18:56:55.558Z,10.63
2019-05-03T18:59:23.824Z,10.23
2019-05-03T19:01:52.561Z,9.60
2019-05-03T19:04:37.389Z,10.38
2019-05-03T19:07:08.494Z,10.05
2019-05-03T19:09:44.457Z,9.83
2019-05-03T19:12:17.419Z,10.95
2019-05-03T19:14:46.570Z,9.38
2019-05-03T19:17:24.753Z,9.95
2019-05-03T19:19:57.759Z,9.63
2019-05-03T19:22:26.441Z,9.78
2019-05-03T19:24:55.050Z,9.15
2019-05-03T19:27:25.142Z,9.00
2019-05-03T19:29:55.536Z,9.53
2019-05-03T19:32:28.330Z,10.15
2019-05-03T19:34:56.057Z,9.83
2019-05-03T19:37:25.210Z,9.10
2019-05-03T19:39:55.218Z,9.50
2019-05-03T19:42:24.841Z,9.18
2019-05-03T19:44:56.018Z,10.50
2019-05-03T19:47:25.149Z,12.93
2019-05-03T19:49:54.820Z,12.47
2019-05-03T19:52:25.524Z,10.08
2019-05-03T19:54:55.418Z,9.43
2019-05-03T19:57:26.025Z,8.93
2019-05-03T19:59:56.791Z,9.63
2019-05-03T20:02:45.413Z,10.20
2019-05-03T20:05:16.035Z,11.20
2019-05-03T20:08:05.029Z,11.75
2019-05-03T20:10:35.155Z,12.15
2019-05-03T20:13:04.681Z,11.78
2019-05-03T20:15:33.584Z,11.00
2019-05-03T20:18:02.191Z,11.48
2019-05-03T20:20:30.761Z,12.60
2019-05-03T20:22:59.238Z,11.65
2019-05-03T20:25:27.841Z,11.05
2019-05-03T20:27:58.098Z,10.85
2019-05-03T20:30:26.629Z,10.40
2019-05-03T20:32:55.620Z,11.38
2019-05-03T20:35:25.195Z,10.93
2019-05-03T20:37:55.324Z,11.20
2019-05-03T20:40:25.546Z,10.32
2019-05-03T20:43:01.761Z,11.57
2019-05-03T20:45:44.561Z,12.60
2019-05-03T20:48:15.176Z,11.60
2019-05-03T20:50:44.744Z,12.30
2019-05-03T20:53:13.855Z,12.45
2019-05-03T20:55:42.485Z,33.45
2019-05-03T20:58:11.464Z,16.75
2019-05-03T21:00:40.538Z,15.13
2019-05-03T21:03:09.004Z,11.73
2019-05-03T21:05:37.675Z,13.30
2019-05-03T21:08:08.064Z,14.75
2019-05-03T21:10:37.410Z,18.05
2019-05-03T21:13:08.760Z,18.00
2019-05-03T21:15:47.353Z,15.88
2019-05-03T21:18:20.216Z,16.70
2019-05-03T21:20:55.502Z,14.13
2019-05-03T21:23:25.246Z,13.62
2019-05-03T21:26:13.413Z,13.45
2019-05-03T21:28:40.913Z,13.75
2019-05-03T21:31:09.520Z,25.30
2019-05-03T21:33:38.168Z,18.32
2019-05-03T21:36:06.784Z,24.15
2019-05-03T21:38:35.711Z,21.77
2019-05-03T21:41:05.382Z,21.02
2019-05-03T21:43:34.765Z,21.05
2019-05-03T21:46:11.384Z,17.02
2019-05-03T21:48:41.539Z,16.02
2019-05-03T21:51:10.180Z,16.17
2019-05-03T21:53:38.714Z,18.57
2019-05-03T21:56:07.356Z,26.07
2019-05-03T21:58:35.992Z,23.65
2019-05-03T22:01:06.251Z,17.60
2019-05-03T22:03:35.580Z,15.13
2019-05-03T22:06:04.288Z,13.32
2019-05-03T22:08:34.939Z,21.12
2019-05-03T22:11:05.247Z,27.62
2019-05-03T22:13:34.943Z,17.82
2019-05-03T22:16:05.380Z,20.82
2019-05-03T22:18:35.477Z,21.50
2019-05-03T22:21:11.530Z,20.23
2019-05-03T22:23:57.821Z,18.07
2019-05-03T22:26:45.263Z,15.63
2019-05-03T22:29:17.236Z,14.35
2019-05-03T22:31:45.332Z,17.12
2019-05-03T22:34:15.120Z,16.97
2019-05-03T22:36:44.432Z,14.20
2019-05-03T22:39:15.778Z,11.93
2019-05-03T22:41:43.654Z,11.15
2019-05-03T22:44:12.189Z,10.88
2019-05-03T22:46:40.997Z,9.75
2019-05-03T22:49:09.608Z,10.82
2019-05-03T22:51:38.144Z,10.63
2019-05-03T22:54:06.709Z,10.95
2019-05-03T22:56:35.673Z,9.85
2019-05-03T22:59:05.475Z,9.35
2019-05-03T23:01:35.181Z,9.60
2019-05-03T23:04:05.611Z,9.58
2019-05-03T23:06:34.345Z,8.45
2019-05-03T23:09:05.128Z,8.73
2019-05-03T23:11:35.311Z,9.75
2019-05-03T23:14:04.971Z,8.98
2019-05-03T23:16:35.655Z,10.50
2019-05-03T23:19:05.546Z,10.18
2019-05-03T23:21:38.790Z,9.80
2019-05-03T23:24:07.401Z,12.73
2019-05-03T23:26:36.038Z,11.38
2019-05-03T23:29:04.711Z,12.35
2019-05-03T23:31:34.375Z,11.00
2019-05-03T23:34:04.976Z,10.93
2019-05-03T23:36:36.283Z,13.25
2019-05-03T23:39:05.362Z,13.75
2019-05-03T23:41:35.345Z,14.55
2019-05-03T23:44:04.747Z,14.00
2019-05-03T23:46:35.200Z,14.20
2019-05-03T23:49:03.973Z,13.38
2019-05-03T23:51:44.412Z,14.13
2019-05-03T23:54:14.847Z,13.50
2019-05-03T23:56:45.634Z,15.28
2019-05-03T23:59:14.863Z,13.32
